Time;durP1;ratioP1;P1;durP2;ratioP2;P2;SDS_P1;SDS_P2;PMS_P1;PMS_P2;Temp;Humidity;BMP_temperature;BMP_pressure;BME280_temperature;BME280_humidity;BME280_pressure;Samples;Min_cycle;Max_cycle;Signal;HPM_P1;HPM_P2
2022/01/31 00:00:29;;;;;;;7.00;1.75;;;;;;;1.75;78.05;99009.14;1822264;78;25518;-70
2022/01/31 00:02:58;;;;;;;4.47;1.50;;;;;;;1.76;77.71;99001.41;1824734;78;25402;-70
2022/01/31 00:05:25;;;;;;;5.95;2.20;;;;;;;1.79;77.47;99008.07;1824700;78;25536;-70
2022/01/31 00:07:51;;;;;;;5.42;2.05;;;;;;;1.79;77.96;99008.86;1824669;78;28055;-70
2022/01/31 00:10:26;;;;;;;4.35;1.47;;;;;;;1.80;77.19;99001.09;1824581;78;25426;-71
2022/01/31 00:13:08;;;;;;;3.65;1.45;;;;;;;1.79;77.15;99003.52;1823188;78;25644;-71
2022/01/31 00:15:37;;;;;;;5.08;1.60;;;;;;;1.78;76.71;99014.47;1824339;78;25475;-70
2022/01/31 00:18:01;;;;;;;3.08;1.47;;;;;;;1.77;77.36;99032.34;1824014;78;25375;-71
2022/01/31 00:20:27;;;;;;;3.87;1.47;;;;;;;1.75;77.17;99002.48;1824800;78;28181;-71
2022/01/31 00:22:54;;;;;;;7.35;1.90;;;;;;;1.71;77.27;99016.13;1824784;78;25505;-71
2022/01/31 00:25:20;;;;;;;3.95;1.12;;;;;;;1.68;77.17;99022.80;1824861;78;25514;-71
2022/01/31 00:27:50;;;;;;;3.37;1.67;;;;;;;1.65;77.25;99027.39;1824796;78;25462;-71
2022/01/31 00:30:17;;;;;;;;;;;;;;;1.61;77.34;99029.55;1827536;78;25592;-71
2022/01/31 00:32:43;;;;;;;3.52;1.40;;;;;;;1.57;77.60;99030.66;1824647;78;28001;-72
2022/01/31 00:35:11;;;;;;;2.05;0.80;;;;;;;1.47;77.29;99022.20;1824560;78;25422;-71
2022/01/31 00:37:37;;;;;;;4.85;1.40;;;;;;;1.51;77.20;99049.63;1824577;78;25541;-72
2022/01/31 00:40:07;;;;;;;3.02;1.05;;;;;;;1.49;77.27;99040.03;1824597;78;25511;-71
2022/01/31 00:42:34;;;;;;;7.15;1.10;;;;;;;1.48;77.28;99046.97;1824432;78;25606;-70
2022/01/31 00:47:40;;;;;;;4.90;1.30;;;;;;;1.49;77.37;99045.36;1824483;78;25828;-72
2022/01/31 00:50:10;;;;;;;1.45;0.80;;;;;;;1.51;77.45;99046.96;1824605;78;25381;-71
2022/01/31 00:52:39;;;;;;;2.65;1.15;;;;;;;1.51;77.22;99042.97;1824616;78;25788;-71
2022/01/31 00:55:08;;;;;;;4.90;1.40;;;;;;;1.53;77.16;99038.93;1824754;78;25478;-72
2022/01/31 00:57:34;;;;;;;1.10;0.70;;;;;;;1.54;77.08;99027.75;1800008;78;27280;-72
2022/01/31 01:00:02;;;;;;;3.02;1.00;;;;;;;1.55;76.97;99035.98;1824454;78;25424;-72
2022/01/31 01:02:30;;;;;;;3.95;1.27;;;;;;;1.56;76.91;99042.38;1824560;78;25378;-72
2022/01/31 01:04:56;;;;;;;4.60;1.35;;;;;;;1.57;76.60;99048.52;1824499;78;25528;-72
2022/01/31 01:07:23;;;;;;;1.75;0.80;;;;;;;1.57;76.80;99037.86;1824587;78;25438;-72
2022/01/31 01:09:49;;;;;;;4.85;0.98;;;;;;;1.57;76.68;99047.98;1824570;78;27440;-72
2022/01/31 01:12:19;;;;;;;3.62;1.00;;;;;;;1.58;76.72;99036.77;1824478;78;25507;-72
2022/01/31 01:14:49;;;;;;;3.05;1.25;;;;;;;1.59;77.14;99056.48;1824655;78;35029;-72
2022/01/31 01:17:17;;;;;;;4.12;1.20;;;;;;;1.60;76.82;99062.59;1824482;78;26103;-72
2022/01/31 01:19:43;;;;;;;4.17;1.17;;;;;;;1.59;76.98;99065.81;1824482;78;25534;-72
2022/01/31 01:22:10;;;;;;;2.47;1.00;;;;;;;1.60;76.94;99055.94;1824526;78;27460;-72
2022/01/31 01:24:37;;;;;;;4.45;1.00;;;;;;;1.61;77.07;99063.66;1824442;78;25805;-72
2022/01/31 01:27:04;;;;;;;1.10;0.75;;;;;;;1.51;76.50;99049.63;1824560;78;25580;-72
2022/01/31 01:29:31;;;;;;;6.72;1.85;;;;;;;1.60;76.20;99055.94;1824488;78;25528;-72
2022/01/31 01:31:57;;;;;;;1.72;1.00;;;;;;;1.59;76.27;99067.14;1824520;78;25446;-72
2022/01/31 01:34:25;;;;;;;5.45;0.93;;;;;;;1.59;76.08;99059.69;1824509;78;27516;-72
2022/01/31 01:36:53;;;;;;;2.05;0.98;;;;;;;1.59;75.38;99072.47;1824450;78;25466;-72
2022/01/31 01:39:20;;;;;;;1.20;0.88;;;;;;;1.53;75.46;99064.25;1824484;78;25612;-72
2022/01/31 01:41:47;;;;;;;3.17;1.30;;;;;;;1.55;74.21;99062.13;1824474;78;25564;-72
2022/01/31 01:44:13;;;;;;;6.10;0.72;;;;;;;1.55;73.81;99075.97;1824629;78;25544;-72
2022/01/31 01:51:45;;;;;;;4.00;0.85;;;;;;;1.46;72.26;99091.76;1706846;84;25577;-70
2022/01/31 01:54:12;;;;;;;1.22;0.60;;;;;;;1.41;72.06;99103.78;1707002;84;25570;-71
2022/01/31 01:56:39;;;;;;;1.52;0.70;;;;;;;1.38;72.08;99097.16;1706944;84;25434;-71
2022/01/31 01:59:05;;;;;;;1.47;0.70;;;;;;;1.36;72.01;99101.16;1706881;84;27571;-71
2022/01/31 02:01:32;;;;;;;3.30;0.80;;;;;;;1.32;71.87;99092.14;1706742;84;25498;-70
2022/01/31 02:03:58;;;;;;;2.50;0.85;;;;;;;1.29;72.23;99110.28;1706851;84;25502;-71
2022/01/31 02:06:24;;;;;;;1.32;0.98;;;;;;;1.25;72.20;99107.89;1706815;84;26252;-71
2022/01/31 02:08:52;;;;;;;2.83;0.95;;;;;;;1.21;72.36;99107.38;1706891;84;25477;-71
2022/01/31 02:11:20;;;;;;;4.28;0.70;;;;;;;1.18;72.37;99104.73;1706863;84;27490;-71
2022/01/31 02:13:46;;;;;;;1.95;0.80;;;;;;;1.16;72.02;99101.56;1706854;84;25612;-71
2022/01/31 02:16:13;;;;;;;3.72;1.10;;;;;;;1.14;71.49;99096.23;1706844;84;25472;-71
2022/01/31 02:18:47;;;;;;;6.12;0.90;;;;;;;1.11;72.42;99091.72;1706783;84;26116;-71
2022/01/31 02:21:09;;;;;;;3.05;1.00;;;;;;;1.08;72.30;99098.14;1705559;84;25683;-70
2022/01/31 02:23:35;;;;;;;2.37;0.90;;;;;;;1.03;71.86;99104.28;1706849;84;27490;-71
2022/01/31 02:26:05;;;;;;;2.12;0.75;;;;;;;1.00;72.34;99100.83;1706764;84;25657;-71
2022/01/31 02:28:36;;;;;;;1.60;0.60;;;;;;;0.96;72.53;99089.69;1706846;84;25583;-70
2022/01/31 02:31:05;;;;;;;1.42;0.90;;;;;;;0.93;72.34;99101.13;1706754;84;25690;-70
2022/01/31 02:33:32;;;;;;;3.63;0.77;;;;;;;0.91;72.77;99093.17;1707126;84;25451;-71
2022/01/31 02:36:03;;;;;;;2.00;0.72;;;;;;;0.91;72.57;99091.84;1706841;84;27475;-71
2022/01/31 02:38:30;;;;;;;1.52;1.02;;;;;;;0.91;72.62;99090.50;1706239;84;25823;-71
2022/01/31 02:40:57;;;;;;;2.90;0.82;;;;;;;0.93;72.81;99095.80;1706799;84;25463;-70
2022/01/31 02:43:29;;;;;;;5.60;1.45;;;;;;;0.96;73.01;99103.00;1706791;84;25550;-71
2022/01/31 02:45:56;;;;;;;2.27;1.25;;;;;;;0.96;72.77;99090.48;1706927;84;25448;-73
2022/01/31 02:48:25;;;;;;;3.50;0.82;;;;;;;0.99;72.79;99089.94;1706827;84;27678;-73
2022/01/31 02:50:53;;;;;;;1.70;0.83;;;;;;;1.00;72.79;99094.17;1706998;84;25414;-72
2022/01/31 02:55:51;;;;;;;3.17;1.37;;;;;;;1.04;72.53;99093.08;1706925;84;26016;-71
2022/01/31 02:58:17;;;;;;;8.78;2.90;;;;;;;1.07;72.80;99096.53;1706829;84;25612;-71
2022/01/31 03:00:45;;;;;;;2.55;1.10;;;;;;;1.07;72.78;99090.70;1706827;84;28072;-71
2022/01/31 03:03:11;;;;;;;3.47;1.42;;;;;;;1.09;72.72;99085.88;1706709;84;25675;-71
2022/01/31 03:05:38;;;;;;;3.65;1.15;;;;;;;1.11;72.75;99089.06;1706827;84;25604;-71
2022/01/31 03:08:06;;;;;;;1.92;1.10;;;;;;;1.12;72.81;99084.52;1706777;84;26041;-71
2022/01/31 03:10:32;;;;;;;7.78;1.77;;;;;;;1.13;72.84;99088.00;1706850;84;25587;-71
2022/01/31 03:13:00;;;;;;;8.53;1.85;;;;;;;1.13;73.26;99088.00;1706791;84;27389;-72
2022/01/31 03:15:27;;;;;;;5.37;1.40;;;;;;;1.11;73.28;99082.41;1706735;84;25629;-72
2022/01/31 03:17:53;;;;;;;4.10;1.20;;;;;;;1.09;73.30;99079.22;1706808;84;25649;-72
2022/01/31 03:20:23;;;;;;;1.70;0.78;;;;;;;1.08;73.54;99082.95;1706742;84;25649;-72
2022/01/31 03:22:51;;;;;;;2.65;1.10;;;;;;;1.06;73.41;99085.64;1681139;84;25619;-71
2022/01/31 03:25:18;;;;;;;3.87;1.15;;;;;;;1.03;73.31;99080.31;1706862;84;27556;-71
2022/01/31 03:27:47;;;;;;;3.37;1.22;;;;;;;1.02;73.37;99097.38;1706707;84;25604;-71
2022/01/31 03:30:18;;;;;;;4.58;1.25;;;;;;;0.99;73.58;99095.26;1706912;84;25434;-71
2022/01/31 03:32:45;;;;;;;3.67;1.10;;;;;;;0.97;73.53;99092.08;1706793;84;25677;-71
2022/01/31 03:35:12;;;;;;;4.45;1.12;;;;;;;0.93;73.70;99093.69;1706817;84;25673;-71
2022/01/31 03:37:38;;;;;;;3.75;0.90;;;;;;;0.90;73.68;99095.05;1706836;84;28369;-71
2022/01/31 03:40:07;;;;;;;7.85;1.90;;;;;;;;;;1706834;84;25811;-71
2022/01/31 03:42:34;;;;;;;5.10;1.17;;;;;;;0.82;73.68;99099.60;1706973;84;25587;-71
2022/01/31 03:45:01;;;;;;;4.00;1.40;;;;;;;0.82;74.18;99097.45;1706939;84;25613;-71
2022/01/31 03:47:27;;;;;;;3.25;1.00;;;;;;;0.80;74.27;99095.61;1706993;84;25606;-71
2022/01/31 03:49:54;;;;;;;4.25;0.98;;;;;;;0.79;74.47;99096.70;1706971;84;27031;-70
2022/01/31 03:52:20;;;;;;;6.87;1.67;;;;;;;0.80;74.63;99103.08;1705379;84;25473;-71
2022/01/31 03:54:47;;;;;;;5.42;1.20;;;;;;;0.81;74.85;99105.20;1705454;84;25213;-71
2022/01/31 03:57:14;;;;;;;6.45;1.45;;;;;;;0.79;74.93;99103.34;1705398;84;25632;-71
2022/01/31 03:59:41;;;;;;;3.17;1.20;;;;;;;0.79;75.18;99104.68;1705428;84;25491;-71
2022/01/31 04:03:00;;;;;;;6.47;1.37;;;;;;;0.80;75.35;99100.93;1705470;84;27745;-71
2022/01/31 04:06:31;;;;;;;4.12;1.50;;;;;;;0.79;75.45;99104.68;1705305;84;25426;-71
2022/01/31 04:08:57;;;;;;;5.65;1.90;;;;;;;0.76;75.70;99096.69;1705410;84;25448;-71
2022/01/31 04:11:25;;;;;;;9.03;1.60;;;;;;;0.77;75.98;99098.81;1705385;84;25575;-71
2022/01/31 04:13:51;;;;;;;3.58;1.35;;;;;;;0.74;76.11;99090.84;1705444;84;25429;-71
2022/01/31 04:16:18;;;;;;;5.65;1.70;;;;;;;0.72;76.15;99085.01;1705417;84;27520;-71
2022/01/31 04:18:44;;;;;;;5.95;1.62;;;;;;;0.69;76.40;99069.03;1705306;84;25464;-71
2022/01/31 04:21:12;;;;;;;5.62;1.50;;;;;;;0.70;76.67;99077.30;1705426;84;25623;-71
2022/01/31 04:23:42;;;;;;;6.87;2.08;;;;;;;0.68;76.84;99086.09;1705364;84;25601;-71
2022/01/31 04:26:13;;;;;;;5.87;1.70;;;;;;;0.67;76.98;99072.51;1705555;84;25581;-71
2022/01/31 04:28:45;;;;;;;5.75;1.32;;;;;;;0.65;77.31;99077.31;1704974;84;28204;-71
2022/01/31 04:31:34;;;;;;;5.92;2.22;;;;;;;0.63;77.45;99078.13;1705338;84;25754;-71
2022/01/31 04:33:43;;;;;;;5.15;2.00;;;;;;;0.64;77.55;99066.94;1702017;84;25565;-71
2022/01/31 04:36:10;;;;;;;7.60;2.40;;;;;;;0.66;77.62;99074.11;1705360;84;25520;-71
2022/01/31 04:38:37;;;;;;;6.83;2.60;;;;;;;0.66;77.78;99072.78;1705373;84;25591;-76
2022/01/31 04:41:04;;;;;;;5.92;2.95;;;;;;;0.68;78.05;99070.63;1705395;84;27621;-71
2022/01/31 04:43:31;;;;;;;9.25;3.87;;;;;;;0.68;77.99;99060.80;1705292;84;25418;-71
2022/01/31 04:46:00;;;;;;;9.03;2.98;;;;;;;0.69;78.24;99065.05;1705368;84;25582;-71
2022/01/31 04:48:26;;;;;;;8.40;3.50;;;;;;;0.68;78.31;99056.81;1705260;83;25615;-72
2022/01/31 04:50:54;;;;;;;14.43;6.08;;;;;;;0.67;78.44;99067.19;1705312;84;25521;-72
2022/01/31 04:53:21;;;;;;;20.72;5.90;;;;;;;0.67;78.58;99067.73;1705435;84;27462;-72
2022/01/31 04:55:48;;;;;;;13.08;5.55;;;;;;;0.68;78.73;99059.98;1705319;84;25596;-72
2022/01/31 04:58:14;;;;;;;20.52;5.10;;;;;;;0.68;78.79;99063.98;1705392;84;25638;-72
2022/01/31 05:00:41;;;;;;;14.83;4.10;;;;;;;0.68;79.02;99057.33;1705317;84;25580;-72
2022/01/31 05:03:16;;;;;;;15.85;4.75;;;;;;;0.68;78.89;99070.63;1705423;84;25626;-72
2022/01/31 05:05:40;;;;;;;14.53;4.60;;;;;;;0.70;78.99;99071.19;1704749;84;28391;-73
2022/01/31 05:08:07;;;;;;;15.98;4.58;;;;;;;0.70;79.07;99065.86;1705323;84;25656;-73
2022/01/31 05:10:35;;;;;;;13.30;3.77;;;;;;;0.72;79.01;99073.03;1705360;84;25438;-72
2022/01/31 05:13:03;;;;;;;9.58;3.70;;;;;;;0.72;79.02;99085.01;1705489;84;25652;-72
2022/01/31 05:15:29;;;;;;;10.82;3.22;;;;;;;0.71;78.78;99076.75;1705496;84;25667;-72
2022/01/31 05:17:56;;;;;;;14.58;4.05;;;;;;;0.71;78.82;99073.55;1705435;84;27589;-72
2022/01/31 05:20:22;;;;;;;17.25;5.85;;;;;;;0.72;78.84;99069.83;1705330;84;25921;-72
2022/01/31 05:22:50;;;;;;;19.67;5.35;;;;;;;0.73;78.84;99071.43;1705471;84;25420;-72
2022/01/31 05:25:17;;;;;;;14.07;5.05;;;;;;;0.73;78.74;99060.78;1705359;84;25473;-71
2022/01/31 05:27:44;;;;;;;18.67;3.98;;;;;;;0.72;78.69;99059.72;1705406;84;25653;-71
2022/01/31 05:30:11;;;;;;;14.38;4.75;;;;;;;0.72;78.71;99060.51;1705342;84;27516;-72
2022/01/31 05:32:38;;;;;;;17.12;4.62;;;;;;;0.71;78.64;99064.77;1705315;84;25435;-72
2022/01/31 05:35:06;;;;;;;13.50;4.37;;;;;;;0.71;78.71;99058.12;1705363;84;25574;-71
2022/01/31 05:37:34;;;;;;;18.90;4.55;;;;;;;0.69;78.61;99051.73;1705373;84;25647;-71
2022/01/31 05:40:04;;;;;;;14.45;4.03;;;;;;;0.68;78.48;99045.35;1705477;84;25479;-71
2022/01/31 05:42:31;;;;;;;17.45;4.35;;;;;;;0.67;78.59;99053.09;1704698;84;28266;-71
2022/01/31 05:44:58;;;;;;;10.88;3.67;;;;;;;0.61;78.63;99037.66;1705325;84;25786;-71
2022/01/31 05:47:25;;;;;;;15.25;4.53;;;;;;;0.64;78.66;99055.75;1705393;84;25473;-71
2022/01/31 05:49:52;;;;;;;15.35;4.70;;;;;;;0.64;78.64;99050.97;1705341;84;25605;-71
2022/01/31 05:52:19;;;;;;;16.52;4.45;;;;;;;0.63;78.65;99052.84;1706322;84;25504;-72
2022/01/31 05:54:46;;;;;;;12.55;4.17;;;;;;;0.61;78.64;99036.88;1707014;84;28212;-72
2022/01/31 05:57:13;;;;;;;23.15;5.40;;;;;;;0.60;78.71;99030.77;1680713;84;25658;-72
2022/01/31 05:59:45;;;;;;;18.40;5.60;;;;;;;0.58;78.77;99035.57;1681128;84;25687;-73
2022/01/31 06:02:14;;;;;;;22.95;5.90;;;;;;;0.58;78.73;99044.06;1678267;84;25604;-73
2022/01/31 06:04:40;;;;;;;22.45;6.12;;;;;;;0.55;78.78;99029.46;1706885;84;25502;-73
2022/01/31 06:07:07;;;;;;;18.05;6.67;;;;;;;0.54;78.83;99038.50;1706853;84;27507;-73
2022/01/31 06:09:33;;;;;;;16.85;4.65;;;;;;;0.53;78.91;99043.03;1706771;84;25462;-73
2022/01/31 06:12:02;;;;;;;14.90;4.97;;;;;;;0.52;78.85;99046.75;1706872;84;25561;-72
2022/01/31 06:14:30;;;;;;;19.25;5.45;;;;;;;0.52;78.95;99044.63;1706978;84;25622;-72
2022/01/31 06:16:57;;;;;;;23.55;5.53;;;;;;;0.50;78.99;99036.92;1706839;84;25580;-71
2022/01/31 06:19:24;;;;;;;13.58;4.90;;;;;;;0.51;79.04;99035.05;1706796;84;27609;-71
2022/01/31 06:21:51;;;;;;;16.48;5.53;;;;;;;0.49;79.09;99043.30;1706804;84;25827;-71
2022/01/31 06:24:18;;;;;;;17.50;5.45;;;;;;;0.48;78.99;99034.28;1706835;84;25636;-71
2022/01/31 06:26:45;;;;;;;11.20;4.95;;;;;;;0.45;79.03;99044.14;1706808;84;25677;-72
2022/01/31 06:29:11;;;;;;;14.50;5.67;;;;;;;0.45;79.20;99043.59;1706876;84;25655;-72
2022/01/31 06:31:38;;;;;;;18.02;5.62;;;;;;;0.40;79.30;99036.97;1706843;84;28314;-72
2022/01/31 06:34:05;;;;;;;14.65;5.30;;;;;;;0.41;79.24;99038.56;1706747;84;26100;-70
2022/01/31 06:36:31;;;;;;;17.50;5.78;;;;;;;0.40;79.25;99038.30;1706848;84;25586;-70
2022/01/31 06:38:58;;;;;;;16.32;5.25;;;;;;;0.39;79.31;99046.00;1706806;84;25620;-70
2022/01/31 06:41:25;;;;;;;20.23;5.37;;;;;;;0.37;79.29;99033.52;1706898;84;25581;-71
2022/01/31 06:43:52;;;;;;;19.90;5.75;;;;;;;0.38;79.39;99039.11;1706878;84;27565;-71
2022/01/31 06:46:19;;;;;;;15.20;4.40;;;;;;;0.39;79.52;99035.91;1706766;84;25488;-71
2022/01/31 06:48:46;;;;;;;27.25;9.98;;;;;;;0.39;79.47;99030.04;1706850;84;25241;-72
2022/01/31 06:51:12;;;;;;;20.55;5.65;;;;;;;0.41;79.51;99025.78;1680597;84;25737;-71
2022/01/31 06:53:40;;;;;;;14.38;6.22;;;;;;;0.39;79.45;99023.39;1705351;84;25680;-71
2022/01/31 06:56:06;;;;;;;14.50;4.70;;;;;;;0.40;79.45;99033.52;1705298;84;27480;-71
2022/01/31 06:58:33;;;;;;;14.68;5.37;;;;;;;0.40;79.41;99031.64;1703813;84;25673;-72
2022/01/31 07:00:59;;;;;;;18.77;5.28;;;;;;;0.40;79.29;99034.30;1677312;84;25576;-73
2022/01/31 07:03:25;;;;;;;15.63;4.40;;;;;;;0.40;79.15;99030.86;1675310;85;26197;-73
2022/01/31 07:05:52;;;;;;;15.68;4.15;;;;;;;0.41;79.08;99031.10;1675445;85;25644;-71
2022/01/31 07:08:18;;;;;;;18.50;4.60;;;;;;;0.40;79.05;99023.66;1644360;85;28422;-73
2022/01/31 07:10:52;;;;;;;15.85;4.15;;;;;;;0.40;79.10;99030.86;1673823;85;25926;-73
2022/01/31 07:13:35;;;;;;;14.58;4.47;;;;;;;0.41;78.96;99027.92;1674159;85;25494;-73
2022/01/31 07:15:51;;;;;;;20.45;6.00;;;;;;;0.41;78.96;99026.59;1672297;84;26153;-73
2022/01/31 07:18:18;;;;;;;13.28;4.40;;;;;;;0.43;79.09;99028.45;1674154;85;25502;-72
2022/01/31 07:20:50;;;;;;;12.05;4.58;;;;;;;0.47;79.01;99032.69;1674021;85;28427;-74
2022/01/31 07:23:26;;;;;;;15.65;4.78;;;;;;;0.51;79.13;99022.56;1673330;84;25406;-73
2022/01/31 07:25:46;;;;;;;18.73;5.75;;;;;;;0.58;79.17;99030.25;1673015;85;25518;-73
2022/01/31 07:28:16;;;;;;;14.40;5.37;;;;;;;0.66;79.09;99030.20;1674084;85;25665;-73
2022/01/31 07:30:46;;;;;;;;;;;;;;;0.73;78.99;99026.70;1676673;85;25646;-72
2022/01/31 07:33:12;;;;;;;14.30;5.00;;;;;;;0.80;78.89;99027.21;1644593;87;27490;-73
2022/01/31 07:35:42;;;;;;;17.32;6.40;;;;;;;0.84;78.57;99024.79;1645254;87;25463;-73
2022/01/31 07:38:09;;;;;;;18.75;5.85;;;;;;;0.88;78.58;99028.48;1690962;84;25641;-73
2022/01/31 07:40:36;;;;;;;11.73;6.08;;;;;;;0.93;78.57;99023.91;1673895;85;26140;-73
2022/01/31 07:43:03;;;;;;;16.35;6.35;;;;;;;0.95;78.31;99026.84;1674067;85;25691;-72
2022/01/31 07:45:30;;;;;;;16.90;5.47;;;;;;;0.97;78.25;99018.86;1674032;85;28222;-73
2022/01/31 07:47:56;;;;;;;15.68;5.45;;;;;;;0.95;78.01;99024.97;1673909;85;26099;-72
2022/01/31 07:50:23;;;;;;;18.97;5.67;;;;;;;0.92;77.78;99017.56;1670622;85;25504;-73
2022/01/31 07:52:49;;;;;;;14.15;5.20;;;;;;;0.92;77.91;99018.34;1657580;85;25721;-72
2022/01/31 07:55:16;;;;;;;19.02;5.90;;;;;;;0.92;77.39;99026.88;1666826;85;25442;-72
2022/01/31 07:57:45;;;;;;;18.62;5.85;;;;;;;0.92;77.42;99021.00;1666939;85;27651;-72
2022/01/31 08:00:12;;;;;;;21.52;5.53;;;;;;;0.95;77.46;99018.86;1682444;84;25761;-71
2022/01/31 08:02:41;;;;;;;19.52;5.60;;;;;;;0.95;77.22;99016.20;1690591;84;25681;-72
2022/01/31 08:05:08;;;;;;;16.05;4.87;;;;;;;0.95;77.49;99014.86;1690320;84;25607;-71
2022/01/31 08:07:38;;;;;;;12.25;4.33;;;;;;;0.92;76.97;99009.02;1690835;84;25460;-73
2022/01/31 08:10:06;;;;;;;21.52;7.33;;;;;;;0.91;77.22;99011.41;1673998;85;27469;-73
2022/01/31 08:12:35;;;;;;;17.27;5.20;;;;;;;0.90;77.36;99017.83;1690536;84;25762;-71
2022/01/31 08:15:06;;;;;;;14.03;4.95;;;;;;;0.92;77.18;99012.23;1690832;84;25651;-73
2022/01/31 08:17:31;;;;;;;13.80;5.05;;;;;;;0.93;77.20;99011.93;1690218;84;26250;-72
2022/01/31 08:19:57;;;;;;;17.85;5.87;;;;;;;0.98;77.28;99007.11;1670457;84;25672;-73
2022/01/31 08:22:23;;;;;;;14.58;4.47;;;;;;;1.04;77.34;99006.02;1661733;86;27577;-72
2022/01/31 08:24:50;;;;;;;15.10;4.62;;;;;;;1.11;76.98;99012.37;1661493;86;25343;-70
2022/01/31 08:27:16;;;;;;;18.67;4.92;;;;;;;1.17;77.11;99003.80;1661734;86;25585;-72
2022/01/31 08:29:42;;;;;;;14.15;6.00;;;;;;;1.25;76.83;99007.20;1661685;86;25620;-72
2022/01/31 08:32:32;;;;;;;13.10;6.30;;;;;;;1.36;76.94;98991.92;1661758;86;25471;-72
2022/01/31 08:37:33;;;;;;;12.55;4.58;;;;;;;1.60;76.21;98994.63;1661674;86;25794;-71
2022/01/31 08:40:00;;;;;;;17.20;5.17;;;;;;;1.74;76.77;98996.09;1661686;86;25429;-71
2022/01/31 08:42:28;;;;;;;20.90;5.22;;;;;;;1.95;76.90;98993.48;1661789;86;25526;-72
2022/01/31 08:44:55;;;;;;;15.30;4.92;;;;;;;2.07;76.17;98978.42;1661732;86;25703;-71
2022/01/31 08:47:21;;;;;;;14.95;4.67;;;;;;;2.14;75.65;98978.86;1661722;86;27457;-72
2022/01/31 08:49:49;;;;;;;16.30;5.17;;;;;;;2.20;75.08;98985.73;1661651;86;25440;-71
2022/01/31 08:52:15;;;;;;;14.10;4.70;;;;;;;2.28;74.84;98988.30;1661955;86;25517;-70
2022/01/31 08:54:42;;;;;;;13.10;4.72;;;;;;;2.35;74.48;98986.62;1644056;87;26235;-72
2022/01/31 08:57:08;;;;;;;13.75;4.33;;;;;;;2.43;74.28;98983.31;1691356;84;25734;-72
2022/01/31 08:59:41;;;;;;;13.32;5.87;;;;;;;2.78;75.54;98995.40;1691095;84;28188;-72
2022/01/31 09:02:06;;;;;;;10.63;4.87;;;;;;;3.09;75.34;98992.83;1689583;84;26414;-71
2022/01/31 09:04:35;;;;;;;19.40;5.45;;;;;;;3.34;74.71;98989.75;1690583;84;25637;-73
2022/01/31 09:07:02;;;;;;;10.58;3.65;;;;;;;3.46;72.94;98987.16;1691158;84;25635;-71
2022/01/31 09:09:34;;;;;;;15.88;4.58;;;;;;;3.44;71.94;98987.98;1642953;87;25704;-72
2022/01/31 09:11:58;;;;;;;19.00;4.93;;;;;;;3.42;72.36;98979.47;1642467;87;27485;-72
2022/01/31 09:14:26;;;;;;;10.50;5.10;;;;;;;3.46;71.16;98983.94;1698776;84;25838;-72
2022/01/31 09:16:53;;;;;;;15.80;4.25;;;;;;;3.49;71.61;98981.20;1698593;84;25637;-72
2022/01/31 09:19:20;;;;;;;20.95;5.33;;;;;;;3.54;71.68;98977.11;1643126;87;25686;-74
2022/01/31 09:21:49;;;;;;;13.08;4.12;;;;;;;3.59;71.32;98971.67;1643299;87;25575;-72
2022/01/31 09:24:15;;;;;;;14.93;4.58;;;;;;;3.57;70.98;98971.18;1698558;84;27474;-72
2022/01/31 09:26:42;;;;;;;12.82;4.03;;;;;;;3.70;70.68;98966.95;1698683;84;25682;-72
2022/01/31 09:29:08;;;;;;;14.65;4.15;;;;;;;3.82;70.94;98961.12;1643073;87;25713;-72
2022/01/31 09:31:34;;;;;;;13.15;4.78;;;;;;;3.99;69.14;98957.30;1642825;87;26297;-73
2022/01/31 09:34:01;;;;;;;17.27;5.92;;;;;;;3.94;68.01;98965.43;1698796;84;25666;-72
2022/01/31 09:36:30;;;;;;;14.30;4.28;;;;;;;3.88;69.53;98956.72;1698760;84;28156;-73
2022/01/31 09:38:56;;;;;;;12.23;4.67;;;;;;;4.10;70.23;98960.04;1698485;84;25898;-71
2022/01/31 09:41:25;;;;;;;14.38;5.85;;;;;;;4.31;69.25;98956.95;1698588;84;25819;-72
2022/01/31 09:44:04;;;;;;;16.27;4.05;;;;;;;4.46;69.51;98958.48;1618954;87;26094;-71
2022/01/31 09:48:56;;;;;;;15.15;4.15;;;;;;;4.71;67.78;98945.09;1698835;84;27461;-71
2022/01/31 09:51:25;;;;;;;11.35;3.37;;;;;;;5.02;68.27;98933.13;1643126;87;25647;-71
2022/01/31 09:54:16;;;;;;;13.75;4.75;;;;;;;5.80;67.11;98926.58;1662078;85;25761;-72
2022/01/31 09:56:46;;;;;;;8.63;3.67;;;;;;;6.62;66.11;98923.45;1672455;85;25766;-73
2022/01/31 09:59:14;;;;;;;;;;;;;;;7.46;65.56;98931.50;1674666;85;25756;-71
2022/01/31 10:01:49;;;;;;;11.53;3.55;;;;;;;8.18;62.57;98914.16;1670737;85;28150;-71
2022/01/31 10:04:22;;;;;;;8.45;2.90;;;;;;;8.89;62.54;98917.95;1670982;85;25670;-72
2022/01/31 10:06:55;;;;;;;8.95;3.62;;;;;;;9.69;61.66;98916.80;1668178;86;25768;-72
2022/01/31 10:09:26;;;;;;;11.85;3.37;;;;;;;9.82;58.87;98914.88;1668361;86;26082;-73
2022/01/31 10:12:18;;;;;;;14.73;3.45;;;;;;;10.36;59.48;98915.22;1667696;86;26116;-72
2022/01/31 10:17:33;;;;;;;7.12;3.12;;;;;;;11.40;55.63;98916.72;1549466;91;25528;-72
2022/01/31 10:20:04;;;;;;;12.05;4.00;;;;;;;11.50;53.24;98916.00;1566694;91;25462;-72
2022/01/31 10:22:34;;;;;;;10.50;3.92;;;;;;;11.45;52.42;98912.20;1546843;91;25731;-73
2022/01/31 10:25:05;;;;;;;10.43;4.47;;;;;;;11.72;55.00;98906.48;1567192;91;25722;-73
2022/01/31 10:27:34;;;;;;;14.73;6.92;;;;;;;11.95;53.38;98910.17;1566990;89;28130;-72
2022/01/31 10:30:14;;;;;;;9.28;3.98;;;;;;;11.48;51.50;98910.16;1567010;91;26086;-72
2022/01/31 10:32:47;;;;;;;7.97;2.98;;;;;;;10.48;50.61;98902.81;1568850;88;25382;-71
2022/01/31 10:35:18;;;;;;;12.43;3.58;;;;;;;9.73;51.54;98912.29;1620638;88;25716;-72
2022/01/31 10:37:47;;;;;;;8.45;3.25;;;;;;;9.06;51.12;98904.87;1620434;88;25811;-72
2022/01/31 10:56:55;;;;;;;8.78;3.90;;;;;;;10.16;52.57;98875.02;1738458;82;25762;-71
2022/01/31 10:59:37;;;;;;;15.05;3.92;;;;;;;10.95;52.58;98867.81;1737930;82;25659;-72
2022/01/31 11:02:08;;;;;;;7.53;2.80;;;;;;;11.71;51.22;98874.56;1731077;82;25840;-71
2022/01/31 11:04:39;;;;;;;5.47;2.25;;;;;;;12.11;48.49;98861.93;1736969;82;25648;-72
2022/01/31 11:07:10;;;;;;;7.42;2.80;;;;;;;12.07;46.73;98871.89;1736831;82;28121;-73
2022/01/31 11:09:38;;;;;;;8.43;2.70;;;;;;;11.24;45.56;98864.50;1736617;81;26204;-72
2022/01/31 11:12:06;;;;;;;8.50;3.37;;;;;;;10.18;43.62;98855.77;1709020;83;26306;-71
2022/01/31 11:14:42;;;;;;;6.73;3.10;;;;;;;9.19;46.33;98867.91;1709186;83;25687;-72
2022/01/31 11:17:12;;;;;;;10.85;3.62;;;;;;;8.60;47.19;98863.01;1709125;83;26403;-71
2022/01/31 11:19:47;;;;;;;13.43;3.83;;;;;;;8.01;48.34;98855.02;1708897;83;27317;-71
2022/01/31 11:22:16;;;;;;;9.18;3.45;;;;;;;7.58;49.02;98864.91;1708799;83;25716;-71
2022/01/31 11:24:51;;;;;;;8.80;3.47;;;;;;;7.31;50.59;98869.38;1709235;83;25744;-73
2022/01/31 11:27:26;;;;;;;6.45;3.15;;;;;;;7.07;50.59;98876.86;1708787;83;25776;-73
2022/01/31 11:29:55;;;;;;;7.20;2.70;;;;;;;6.77;50.77;98884.02;1707714;83;25691;-72
2022/01/31 11:32:24;;;;;;;6.45;2.80;;;;;;;6.49;50.42;98881.66;1708848;83;28455;-73
2022/01/31 11:34:51;;;;;;;10.32;3.30;;;;;;;6.50;50.66;98880.56;1708882;83;25789;-73
2022/01/31 11:37:21;;;;;;;8.00;2.80;;;;;;;6.77;51.70;98892.08;1708561;83;25788;-72
2022/01/31 11:40:02;;;;;;;;;;;;;;;7.47;52.67;98883.32;1711081;83;25742;-73
2022/01/31 11:42:30;;;;;;;5.53;2.40;;;;;;;8.35;52.50;98877.45;1708861;83;25728;-73
2022/01/31 11:45:16;;;;;;;8.33;3.08;;;;;;;8.75;47.75;98877.80;1708909;83;27381;-72
2022/01/31 11:47:48;;;;;;;5.35;2.37;;;;;;;8.80;49.31;98882.17;1708989;83;25769;-71
2022/01/31 11:50:16;;;;;;;10.43;4.03;;;;;;;8.82;49.93;98871.87;1707167;83;31207;-72
2022/01/31 11:52:49;;;;;;;14.58;4.90;;;;;;;9.10;50.05;98890.16;1708995;83;26017;-72
2022/01/31 11:55:23;;;;;;;9.40;3.50;;;;;;;8.83;48.82;98884.78;1709377;83;26186;-72
2022/01/31 11:57:53;;;;;;;18.85;8.08;;;;;;;8.27;47.91;98893.89;1710139;83;27345;-73
2022/01/31 12:00:24;;;;;;;6.55;2.52;;;;;;;7.85;48.98;98890.58;1710756;83;25875;-69
2022/01/31 12:02:54;;;;;;;17.50;5.55;;;;;;;7.47;48.52;98888.70;1711287;83;25868;-71
2022/01/31 12:05:25;;;;;;;7.97;2.58;;;;;;;7.55;49.85;98881.69;1711210;83;26024;-71
2022/01/31 12:08:09;;;;;;;6.30;2.33;;;;;;;8.07;50.51;98878.50;1711409;83;25803;-71
2022/01/31 12:10:42;;;;;;;9.93;2.90;;;;;;;8.56;50.13;98884.20;1669850;83;27395;-71
2022/01/31 12:13:46;;;;;;;9.38;2.85;;;;;;;9.09;50.35;98883.17;1667898;85;25706;-71
2022/01/31 12:16:44;;;;;;;9.20;2.02;;;;;;;9.47;48.41;98888.31;1668269;85;25823;-70
2022/01/31 12:19:30;;;;;;;4.12;2.00;;;;;;;9.02;45.83;98881.58;1666936;85;26306;-69
2022/01/31 12:22:00;;;;;;;4.92;1.98;;;;;;;8.31;45.28;98884.05;1640092;87;25883;-70